Time;durP1;ratioP1;P1;durP2;ratioP2;P2;SDS_P1;SDS_P2;PMS_P1;PMS_P2;Temp;Humidity;BMP_temperature;BMP_pressure;BME280_temperature;BME280_humidity;BME280_pressure;Samples;Min_cycle;Max_cycle;Signal;HPM_P1;HPM_P2
2020/12/14 07:13:01;;;;;;;5.30;0.60;;;18.40;74.10;;;;;;5104817;27;20736;-45
2020/12/14 07:15:32;;;;;;;6.00;0.82;;;18.40;74.60;;;;;;5079626;28;20038;-41
2020/12/14 07:18:08;;;;;;;4.82;0.70;;;18.40;74.20;;;;;;5084165;28;20143;-45
2020/12/14 07:20:34;;;;;;;2.20;0.68;;;18.50;74.20;;;;;;5075340;28;20029;-43
2020/12/14 07:23:05;;;;;;;2.47;1.00;;;18.50;74.00;;;;;;5079300;28;20029;-45
2020/12/14 07:25:31;;;;;;;4.00;1.13;;;18.50;73.90;;;;;;5078755;28;20100;-45
2020/12/14 07:27:56;;;;;;;4.53;0.98;;;18.50;74.60;;;;;;5076821;28;20039;-38
2020/12/14 07:30:23;;;;;;;5.18;1.27;;;18.50;73.70;;;;;;5074692;28;20076;-43
2020/12/14 07:32:49;;;;;;;3.50;0.80;;;18.50;73.50;;;;;;5074872;28;20036;-44
2020/12/14 07:35:14;;;;;;;6.10;1.08;;;18.50;73.30;;;;;;5082120;28;20021;-44
2020/12/14 07:37:40;;;;;;;3.15;0.90;;;18.50;73.40;;;;;;5084382;28;20514;-46
2020/12/14 07:40:06;;;;;;;4.20;0.82;;;18.50;73.90;;;;;;5071745;28;20064;-45
2020/12/14 07:42:34;;;;;;;3.05;0.95;;;18.60;74.10;;;;;;5081907;28;20036;-47
2020/12/14 07:45:12;;;;;;;4.28;0.90;;;18.60;74.80;;;;;;5089503;28;20038;-44
2020/12/14 07:47:39;;;;;;;8.52;1.27;;;18.60;75.20;;;;;;5081027;28;20059;-45
2020/12/14 07:50:11;;;;;;;7.85;1.70;;;18.60;75.60;;;;;;5085098;28;20024;-47
2020/12/14 07:52:37;;;;;;;8.25;1.65;;;18.60;76.50;;;;;;5076697;28;20040;-46
2020/12/14 07:55:05;;;;;;;9.80;1.27;;;18.60;78.00;;;;;;5087407;28;20055;-45
2020/12/14 07:57:33;;;;;;;9.50;1.50;;;18.70;78.00;;;;;;5089442;28;20381;-48
2020/12/14 08:00:01;;;;;;;8.85;1.50;;;18.70;78.00;;;;;;5081544;28;20078;-45
2020/12/14 08:02:29;;;;;;;8.27;1.80;;;18.70;79.30;;;;;;5084160;28;20024;-45
2020/12/14 08:05:02;;;;;;;12.75;2.15;;;18.70;78.40;;;;;;5087762;28;20032;-43
2020/12/14 08:07:31;;;;;;;13.13;1.73;;;18.70;78.80;;;;;;5089343;28;20032;-45
2020/12/14 08:09:57;;;;;;;11.75;2.10;;;18.70;79.00;;;;;;5069128;28;20021;-44
2020/12/14 08:12:23;;;;;;;16.80;2.42;;;18.70;78.80;;;;;;5082144;28;20414;-43
2020/12/14 08:14:48;;;;;;;12.25;1.83;;;18.70;78.80;;;;;;5089259;28;20024;-44
2020/12/14 08:17:14;;;;;;;12.23;2.25;;;18.70;79.50;;;;;;5085599;28;20059;-42
2020/12/14 08:19:40;;;;;;;8.23;1.15;;;18.70;78.80;;;;;;5085608;28;20020;-44
2020/12/14 08:22:06;;;;;;;10.48;1.95;;;18.70;78.60;;;;;;5086536;28;20141;-43
2020/12/14 08:24:32;;;;;;;10.30;1.58;;;18.80;78.80;;;;;;5069478;28;20031;-41
2020/12/14 08:27:03;;;;;;;14.00;2.00;;;18.70;78.40;;;;;;5073739;28;20029;-44
2020/12/14 08:29:29;;;;;;;14.57;1.88;;;18.70;78.10;;;;;;5073910;28;20055;-44
2020/12/14 08:31:57;;;;;;;11.55;2.08;;;18.80;77.90;;;;;;5071868;28;20530;-45
2020/12/14 08:34:32;;;;;;;9.52;2.33;;;18.70;77.90;;;;;;5071961;28;20022;-43
2020/12/14 08:36:58;;;;;;;15.32;1.85;;;18.70;77.80;;;;;;5070637;28;20432;-43
2020/12/14 08:39:23;;;;;;;17.30;2.30;;;18.70;77.50;;;;;;5070874;28;20025;-43
2020/12/14 08:42:11;;;;;;;7.68;1.48;;;18.70;77.40;;;;;;5067805;28;20551;-43
2020/12/14 08:44:37;;;;;;;8.73;1.23;;;18.70;77.10;;;;;;5072733;28;20135;-44
2020/12/14 08:47:10;;;;;;;6.35;1.52;;;18.70;76.90;;;;;;5071893;28;20036;-45
2020/12/14 08:49:36;;;;;;;9.02;2.08;;;18.70;76.70;;;;;;5061142;28;20016;-47
2020/12/14 08:52:02;;;;;;;9.80;2.60;;;18.70;76.70;;;;;;5072134;28;20078;-46
2020/12/14 08:54:27;;;;;;;11.20;1.70;;;18.70;76.50;;;;;;5073442;28;20518;-45
2020/12/14 08:56:53;;;;;;;9.00;1.65;;;18.70;77.00;;;;;;5069567;28;20032;-44
2020/12/14 08:59:18;;;;;;;7.70;1.80;;;18.60;76.70;;;;;;5067558;28;20070;-45
2020/12/14 09:01:57;;;;;;;6.25;1.35;;;18.70;75.50;;;;;;5061354;28;20033;-42
2020/12/14 09:04:29;;;;;;;6.50;1.60;;;18.70;75.40;;;;;;5057742;28;20024;-44
2020/12/14 09:06:55;;;;;;;5.70;1.50;;;18.70;75.50;;;;;;5056390;28;20083;-44
2020/12/14 09:09:28;;;;;;;6.15;1.52;;;18.70;75.40;;;;;;5071100;28;20492;-45
2020/12/14 09:11:54;;;;;;;11.77;1.30;;;18.60;75.20;;;;;;5069939;28;20099;-45
2020/12/14 09:14:32;;;;;;;5.90;1.30;;;18.70;75.00;;;;;;5070957;28;20496;-44
2020/12/14 09:17:03;;;;;;;8.82;1.15;;;18.60;75.00;;;;;;5067105;28;20028;-45
2020/12/14 09:19:29;;;;;;;8.07;1.58;;;18.70;74.80;;;;;;5066406;28;20029;-45
2020/12/14 09:21:55;;;;;;;5.55;1.13;;;18.60;74.50;;;;;;5070249;28;20511;-45
2020/12/14 09:24:22;;;;;;;5.60;1.30;;;18.60;74.40;;;;;;5067452;28;20041;-50
2020/12/14 09:26:49;;;;;;;9.85;1.42;;;18.70;74.40;;;;;;5068408;28;20111;-52
2020/12/14 09:29:14;;;;;;;4.80;1.23;;;18.70;74.10;;;;;;5071340;28;20147;-53
2020/12/14 09:31:56;;;;;;;6.85;1.90;;;18.70;74.10;;;;;;5068796;28;20502;-51
2020/12/14 09:34:22;;;;;;;5.35;1.63;;;18.70;73.80;;;;;;5070358;28;20032;-51
2020/12/14 09:36:55;;;;;;;6.72;1.90;;;18.70;73.80;;;;;;5071240;28;20020;-53
2020/12/14 09:39:22;;;;;;;9.52;1.67;;;18.70;73.80;;;;;;5070735;28;20033;-50
2020/12/14 09:41:47;;;;;;;5.90;1.33;;;18.70;73.60;;;;;;5070118;28;20021;-49
2020/12/14 09:44:13;;;;;;;5.32;1.50;;;18.70;73.50;;;;;;5070481;28;20476;-46
2020/12/14 09:46:38;;;;;;;6.38;1.70;;;18.80;74.30;;;;;;5068878;28;20064;-44
2020/12/14 09:49:04;;;;;;;4.00;1.48;;;18.70;73.30;;;;;;5068890;28;20051;-48
2020/12/14 09:51:29;;;;;;;5.22;1.65;;;18.70;73.90;;;;;;5071525;28;20032;-46
2020/12/14 09:53:55;;;;;;;4.90;1.13;;;18.80;73.80;;;;;;5069174;28;20462;-47
2020/12/14 09:56:21;;;;;;;6.50;1.30;;;18.80;72.80;;;;;;5071441;28;20078;-40
2020/12/14 09:58:46;;;;;;;4.70;1.38;;;18.80;72.80;;;;;;5067667;28;20020;-46
2020/12/14 10:01:12;;;;;;;8.02;1.45;;;18.80;72.80;;;;;;5070820;28;20064;-46
2020/12/14 10:03:38;;;;;;;5.97;1.40;;;18.80;72.60;;;;;;5071484;28;20024;-46
2020/12/14 10:06:03;;;;;;;6.65;1.30;;;18.90;72.30;;;;;;5070021;28;20085;-46
2020/12/14 10:08:29;;;;;;;5.43;1.17;;;18.90;72.20;;;;;;5066969;28;20039;-46
2020/12/14 10:10:56;;;;;;;6.70;1.30;;;18.80;72.20;;;;;;5066436;28;20052;-50
2020/12/14 10:13:24;;;;;;;8.90;1.20;;;18.80;72.20;;;;;;5070596;28;20416;-49
2020/12/14 10:15:50;;;;;;;5.00;1.35;;;18.80;72.80;;;;;;5069476;28;20507;-52
2020/12/14 10:18:16;;;;;;;5.50;1.33;;;18.90;72.20;;;;;;5070709;28;20036;-48
2020/12/14 10:20:42;;;;;;;5.30;1.40;;;18.90;71.90;;;;;;5069479;28;20373;-50
2020/12/14 10:23:08;;;;;;;7.15;1.42;;;18.90;71.80;;;;;;5069835;28;20447;-45
2020/12/14 10:25:35;;;;;;;11.65;1.73;;;18.90;71.80;;;;;;5070783;28;20077;-44
2020/12/14 10:28:01;;;;;;;8.90;1.35;;;18.90;71.60;;;;;;5069632;28;20024;-49
2020/12/14 10:30:26;;;;;;;5.85;1.73;;;18.90;71.50;;;;;;5071449;28;20434;-48
2020/12/14 10:32:52;;;;;;;2.97;1.38;;;18.90;71.40;;;;;;5068536;28;20048;-46
2020/12/14 10:35:17;;;;;;;2.92;1.20;;;18.90;71.40;;;;;;5068924;28;20013;-50
2020/12/14 10:37:43;;;;;;;3.45;1.40;;;18.90;71.30;;;;;;5068041;28;20123;-47
2020/12/14 10:40:08;;;;;;;5.88;1.27;;;18.90;71.20;;;;;;5068214;28;20021;-51
2020/12/14 10:42:34;;;;;;;4.25;1.38;;;18.90;71.10;;;;;;5063820;28;20099;-52
2020/12/14 10:45:00;;;;;;;3.20;1.63;;;18.90;71.00;;;;;;5069653;28;20036;-49
2020/12/14 10:47:27;;;;;;;5.05;1.60;;;18.80;70.80;;;;;;5070594;28;20037;-48
2020/12/14 10:49:53;;;;;;;5.90;2.30;;;18.90;70.90;;;;;;5070775;28;20028;-50
2020/12/14 10:52:18;;;;;;;7.40;2.85;;;18.90;71.00;;;;;;5069815;28;20062;-47
2020/12/14 10:54:44;;;;;;;8.88;2.92;;;18.90;71.00;;;;;;5070158;28;20150;-46
2020/12/14 10:57:09;;;;;;;7.50;3.25;;;18.90;70.90;;;;;;5069562;28;20035;-47
2020/12/14 10:59:35;;;;;;;9.25;4.07;;;18.90;71.10;;;;;;5067191;28;20169;-46
2020/12/14 11:02:01;;;;;;;12.10;4.85;;;18.90;71.50;;;;;;5069730;28;20036;-47
2020/12/14 11:04:26;;;;;;;14.38;5.07;;;18.90;71.60;;;;;;5070396;28;20525;-46
2020/12/14 11:06:52;;;;;;;17.33;5.38;;;18.90;71.40;;;;;;5069157;28;20045;-51
2020/12/14 11:09:18;;;;;;;17.83;5.28;;;19.00;72.10;;;;;;5059095;28;20036;-48
2020/12/14 11:11:43;;;;;;;22.15;4.93;;;19.00;71.00;;;;;;5057987;28;20079;-48
2020/12/14 11:14:09;;;;;;;13.93;4.72;;;19.00;71.00;;;;;;5063976;28;20091;-50
2020/12/14 11:16:38;;;;;;;16.05;4.78;;;18.90;70.90;;;;;;5071267;28;20032;-51
2020/12/14 11:19:04;;;;;;;10.40;4.00;;;18.90;70.90;;;;;;5059608;28;25314;-48
2020/12/14 11:21:29;;;;;;;10.20;3.50;;;18.90;71.00;;;;;;5066246;28;20052;-48
2020/12/14 11:23:55;;;;;;;14.02;3.78;;;18.90;70.70;;;;;;5057845;28;20451;-48
2020/12/14 11:26:21;;;;;;;13.05;2.88;;;18.90;71.00;;;;;;5065781;28;20037;-53
2020/12/14 11:28:46;;;;;;;13.65;3.67;;;18.90;71.70;;;;;;5072699;28;20028;-49
2020/12/14 11:31:12;;;;;;;8.88;2.88;;;19.00;71.00;;;;;;5055460;28;20050;-48
2020/12/14 11:33:37;;;;;;;7.07;2.80;;;19.00;71.30;;;;;;5056645;28;20119;-48
2020/12/14 11:36:03;;;;;;;8.55;2.60;;;19.00;71.30;;;;;;5071441;28;20500;-49
2020/12/14 11:38:30;;;;;;;6.43;2.10;;;19.00;71.40;;;;;;5071910;28;20116;-49
2020/12/14 11:40:57;;;;;;;6.22;2.08;;;19.00;71.00;;;;;;5072133;28;20051;-54
2020/12/14 11:43:22;;;;;;;6.45;2.00;;;19.00;70.50;;;;;;5064566;28;20028;-50
2020/12/14 11:45:48;;;;;;;7.80;2.50;;;19.10;70.30;;;;;;5067507;28;20029;-53
2020/12/14 11:48:14;;;;;;;5.50;2.38;;;19.10;70.20;;;;;;5073097;28;20025;-51
2020/12/14 11:50:40;;;;;;;3.88;1.88;;;19.10;70.10;;;;;;5058808;28;20044;-50
2020/12/14 11:53:05;;;;;;;9.93;2.38;;;19.10;70.70;;;;;;5056816;28;20082;-53
2020/12/14 11:55:31;;;;;;;5.60;2.13;;;19.10;70.20;;;;;;5064639;28;20024;-53
2020/12/14 11:57:57;;;;;;;8.15;2.30;;;19.10;70.20;;;;;;5051235;28;20037;-54
2020/12/14 12:00:22;;;;;;;7.40;2.22;;;19.20;70.40;;;;;;5058513;28;20107;-54
2020/12/14 12:02:48;;;;;;;4.13;1.73;;;19.10;70.70;;;;;;5068880;28;20479;-47
2020/12/14 12:05:13;;;;;;;7.72;2.10;;;19.20;70.90;;;;;;5066688;28;20075;-53
2020/12/14 12:07:39;;;;;;;6.43;2.03;;;19.20;70.80;;;;;;5063121;28;20028;-50
2020/12/14 12:10:04;;;;;;;9.45;2.20;;;19.20;70.80;;;;;;5068351;28;20941;-53
2020/12/14 12:12:30;;;;;;;3.63;1.80;;;19.20;70.70;;;;;;5069552;28;20583;-52
2020/12/14 12:14:55;;;;;;;6.80;1.60;;;19.20;70.60;;;;;;5070088;28;20064;-53
2020/12/14 12:17:21;;;;;;;3.90;1.70;;;19.20;70.50;;;;;;5069449;28;20032;-56
2020/12/14 12:19:47;;;;;;;4.60;2.00;;;19.20;70.60;;;;;;5069350;28;20567;-54
2020/12/14 12:22:13;;;;;;;4.40;1.58;;;19.20;70.60;;;;;;5069064;28;20587;-52
2020/12/14 12:24:39;;;;;;;5.60;1.60;;;19.20;71.30;;;;;;5066593;28;20108;-53
2020/12/14 12:27:04;;;;;;;6.45;2.15;;;19.30;70.60;;;;;;5068638;28;20082;-52
2020/12/14 12:29:30;;;;;;;5.20;2.20;;;19.30;70.60;;;;;;4719140;28;10000467;-53
2020/12/14 12:31:57;;;;;;;9.82;2.05;;;19.20;70.50;;;;;;5069808;28;20107;-53
2020/12/14 12:34:22;;;;;;;6.13;1.80;;;19.20;70.50;;;;;;5071598;28;20024;-50
2020/12/14 12:36:55;;;;;;;5.28;1.70;;;19.20;71.30;;;;;;5068149;28;20033;-52
2020/12/14 12:39:21;;;;;;;5.85;1.90;;;19.20;70.50;;;;;;5072468;28;20080;-48
2020/12/14 12:41:50;;;;;;;3.20;1.77;;;19.20;70.60;;;;;;5037644;28;20582;-54
2020/12/14 12:44:16;;;;;;;7.53;2.05;;;19.20;70.30;;;;;;5044977;28;20102;-54
2020/12/14 12:46:42;;;;;;;5.93;1.88;;;19.30;71.00;;;;;;5037004;28;20464;-55
2020/12/14 12:49:08;;;;;;;5.47;2.00;;;19.30;70.10;;;;;;5048322;28;20083;-47
2020/12/14 12:51:33;;;;;;;3.10;1.55;;;19.30;70.10;;;;;;5048798;28;20047;-54
2020/12/14 12:54:00;;;;;;;4.72;1.88;;;19.30;70.80;;;;;;5036150;28;20148;-55
2020/12/14 12:56:26;;;;;;;2.08;1.05;;;19.30;70.00;;;;;;5026211;28;20046;-53
2020/12/14 12:58:52;;;;;;;5.03;1.45;;;19.30;69.90;;;;;;5030141;28;20049;-54
2020/12/14 13:01:17;;;;;;;5.63;1.55;;;19.30;69.90;;;;;;5035657;28;20058;-49
2020/12/14 13:03:43;;;;;;;2.50;1.27;;;19.30;69.90;;;;;;5036703;28;20702;-54
2020/12/14 13:06:09;;;;;;;4.93;1.67;;;19.30;69.80;;;;;;5036811;28;20057;-49
2020/12/14 13:08:34;;;;;;;3.63;1.52;;;19.30;69.80;;;;;;5046470;28;20071;-54
2020/12/14 13:11:00;;;;;;;2.95;1.48;;;19.30;69.60;;;;;;5041979;28;20049;-52
2020/12/14 13:13:25;;;;;;;5.80;2.03;;;19.30;69.60;;;;;;5047347;28;20504;-51
2020/12/14 13:15:51;;;;;;;3.35;1.30;;;19.30;70.30;;;;;;5046726;28;20136;-54
2020/12/14 13:18:17;;;;;;;3.65;1.42;;;19.30;69.40;;;;;;5049396;28;20127;-50
2020/12/14 13:20:45;;;;;;;5.03;1.40;;;19.30;69.40;;;;;;5047126;28;20040;-54
2020/12/14 13:23:11;;;;;;;3.33;1.50;;;19.40;69.40;;;;;;5046053;28;20048;-51
2020/12/14 13:25:37;;;;;;;5.13;1.42;;;19.40;69.30;;;;;;5045582;28;20044;-52
2020/12/14 13:28:03;;;;;;;3.28;1.63;;;19.30;69.20;;;;;;5049557;28;20028;-51
2020/12/14 13:30:28;;;;;;;6.30;1.40;;;19.30;69.20;;;;;;5051283;28;20428;-54
2020/12/14 13:32:54;;;;;;;5.07;1.75;;;19.40;69.20;;;;;;5044530;28;20056;-53
2020/12/14 13:35:19;;;;;;;3.13;1.40;;;19.40;69.00;;;;;;5040858;28;20133;-54
2020/12/14 13:37:46;;;;;;;2.47;1.30;;;19.40;69.00;;;;;;5046933;28;20049;-54
2020/12/14 13:40:12;;;;;;;5.35;1.40;;;19.40;68.90;;;;;;5034332;28;20053;-57
2020/12/14 13:42:38;;;;;;;2.15;1.25;;;19.40;69.70;;;;;;5048844;28;20547;-55
2020/12/14 13:45:03;;;;;;;2.88;1.20;;;19.40;68.90;;;;;;5047527;28;20045;-54
2020/12/14 13:47:29;;;;;;;2.40;1.52;;;19.40;68.80;;;;;;5049225;28;20032;-54
2020/12/14 13:49:54;;;;;;;2.55;1.25;;;19.30;68.80;;;;;;5036844;28;20050;-56
2020/12/14 13:52:22;;;;;;;1.77;1.15;;;19.40;68.80;;;;;;5047509;28;20501;-60
2020/12/14 13:54:47;;;;;;;1.58;1.00;;;19.30;68.70;;;;;;5046970;28;20469;-55
2020/12/14 13:57:13;;;;;;;2.40;1.27;;;19.40;68.80;;;;;;5031316;28;20048;-55
2020/12/14 13:59:43;;;;;;;3.33;1.13;;;19.30;69.50;;;;;;5032730;28;20505;-55
2020/12/14 14:02:08;;;;;;;5.78;1.13;;;19.30;68.60;;;;;;5043375;28;20064;-54
2020/12/14 14:04:34;;;;;;;2.63;1.15;;;19.30;68.70;;;;;;5046168;28;20049;-56
2020/12/14 14:06:59;;;;;;;1.63;1.00;;;19.40;68.90;;;;;;5048032;28;20088;-57
2020/12/14 14:09:25;;;;;;;2.83;0.93;;;19.30;69.70;;;;;;5049134;28;20519;-56
2020/12/14 14:11:51;;;;;;;3.85;1.20;;;19.40;69.10;;;;;;5047700;28;20041;-58
2020/12/14 14:14:17;;;;;;;4.45;1.17;;;19.40;69.00;;;;;;5046822;28;20060;-57
2020/12/14 14:16:48;;;;;;;4.43;1.25;;;19.40;68.90;;;;;;5043513;28;21038;-55
2020/12/14 14:19:13;;;;;;;1.38;0.95;;;19.40;69.00;;;;;;5045465;28;20025;-50
2020/12/14 14:21:39;;;;;;;1.88;0.85;;;19.40;69.10;;;;;;5044163;28;20028;-55
2020/12/14 14:24:05;;;;;;;1.30;1.00;;;19.40;68.90;;;;;;5046738;28;20166;-53
2020/12/14 14:26:30;;;;;;;5.30;1.52;;;19.40;68.80;;;;;;5045108;28;20040;-54
2020/12/14 14:28:56;;;;;;;1.58;1.00;;;19.30;68.70;;;;;;5048232;28;20068;-58
2020/12/14 14:31:21;;;;;;;2.17;1.20;;;19.40;68.70;;;;;;5048806;28;20017;-54
2020/12/14 14:33:47;;;;;;;3.80;1.27;;;19.40;68.50;;;;;;5048263;28;20032;-53
2020/12/14 14:36:13;;;;;;;4.82;1.17;;;19.30;68.60;;;;;;5047633;28;20029;-56
2020/12/14 14:38:38;;;;;;;2.28;1.23;;;19.30;68.70;;;;;;5047244;28;20075;-57
2020/12/14 14:41:05;;;;;;;2.90;1.23;;;19.30;68.80;;;;;;5041038;28;20428;-58
2020/12/14 14:43:31;;;;;;;3.17;1.33;;;19.30;68.70;;;;;;5045360;28;20037;-56
2020/12/14 14:45:56;;;;;;;2.15;1.00;;;19.30;68.60;;;;;;5047754;28;20037;-54
2020/12/14 14:48:22;;;;;;;2.85;1.52;;;19.30;68.60;;;;;;5048831;28;20024;-54
2020/12/14 14:50:48;;;;;;;3.22;1.00;;;19.30;68.60;;;;;;5048003;28;20528;-57
2020/12/14 14:53:14;;;;;;;2.97;1.80;;;19.30;68.60;;;;;;5046697;28;20115;-57
2020/12/14 14:55:46;;;;;;;1.70;1.20;;;19.30;68.50;;;;;;5047437;28;20104;-54
2020/12/14 14:58:12;;;;;;;1.75;0.93;;;19.40;68.50;;;;;;5046940;28;20029;-54
2020/12/14 15:00:37;;;;;;;2.67;1.20;;;19.30;68.50;;;;;;5049726;28;20088;-56
2020/12/14 15:03:03;;;;;;;5.28;1.48;;;19.30;68.50;;;;;;5045116;28;20059;-55
2020/12/14 15:05:29;;;;;;;1.63;1.00;;;19.30;68.50;;;;;;5040118;28;20504;-56
2020/12/14 15:07:54;;;;;;;3.00;1.00;;;19.30;68.60;;;;;;5044506;28;20047;-54
2020/12/14 15:10:20;;;;;;;1.80;0.90;;;19.30;68.60;;;;;;5045343;28;20084;-56
2020/12/14 15:12:45;;;;;;;2.78;0.85;;;19.30;68.50;;;;;;5048761;28;20495;-46
2020/12/14 15:15:11;;;;;;;2.17;1.13;;;19.30;68.60;;;;;;5046282;28;20082;-57
2020/12/14 15:17:36;;;;;;;1.85;0.90;;;19.30;68.70;;;;;;5045140;28;20116;-45
2020/12/14 15:20:03;;;;;;;1.00;0.70;;;19.30;68.60;;;;;;5045245;28;20501;-51
2020/12/14 15:22:28;;;;;;;2.85;1.63;;;19.30;68.30;;;;;;5044765;28;20060;-53
2020/12/14 15:24:54;;;;;;;1.50;1.00;;;19.40;69.30;;;;;;5046660;28;20073;-51
2020/12/14 15:27:20;;;;;;;1.48;0.82;;;19.40;69.70;;;;;;5038504;28;20025;-48
2020/12/14 15:29:45;;;;;;;3.10;1.08;;;19.40;68.50;;;;;;5045850;28;20083;-50
2020/12/14 15:32:11;;;;;;;2.28;1.08;;;19.40;68.30;;;;;;5044651;28;20068;-48
2020/12/14 15:34:36;;;;;;;1.20;0.68;;;19.40;69.30;;;;;;5048317;28;20032;-50
2020/12/14 15:37:02;;;;;;;4.05;1.00;;;19.40;68.40;;;;;;5048549;28;20052;-52
2020/12/14 15:39:28;;;;;;;3.15;1.35;;;19.40;68.60;;;;;;5051143;28;20495;-51
2020/12/14 15:41:53;;;;;;;4.70;2.03;;;19.50;69.10;;;;;;5030484;28;20157;-52
2020/12/14 15:44:19;;;;;;;5.82;3.20;;;19.40;69.10;;;;;;5025764;28;20038;-49
2020/12/14 15:46:45;;;;;;;4.13;2.50;;;19.40;69.00;;;;;;5032720;28;20496;-49
2020/12/14 15:49:11;;;;;;;6.85;3.03;;;19.50;69.80;;;;;;5046006;28;20037;-49
2020/12/14 15:51:36;;;;;;;2.63;1.60;;;19.50;69.00;;;;;;5051740;28;20103;-49
2020/12/14 15:54:02;;;;;;;4.05;1.92;;;19.50;68.60;;;;;;5048269;28;20036;-48
2020/12/14 15:56:28;;;;;;;2.50;1.80;;;19.50;68.60;;;;;;5043987;28;20037;-49
2020/12/14 15:58:53;;;;;;;3.30;2.10;;;19.50;68.60;;;;;;5040059;28;20045;-49
2020/12/14 16:01:20;;;;;;;3.30;1.52;;;19.50;68.60;;;;;;5049191;28;20060;-50
2020/12/14 16:03:45;;;;;;;4.75;1.70;;;19.60;68.50;;;;;;5051654;28;20083;-47
2020/12/14 16:06:16;;;;;;;2.78;1.60;;;19.60;68.50;;;;;;5045102;28;20038;-50
2020/12/14 16:08:41;;;;;;;5.80;2.22;;;19.50;68.40;;;;;;5044842;28;20046;-53
2020/12/14 16:11:07;;;;;;;2.58;1.60;;;19.50;69.40;;;;;;5037900;28;20048;-51
2020/12/14 16:13:32;;;;;;;4.15;1.55;;;19.50;68.70;;;;;;5047947;28;20041;-52
2020/12/14 16:15:58;;;;;;;4.53;1.52;;;19.50;68.50;;;;;;5045996;28;20041;-54
2020/12/14 16:18:23;;;;;;;3.45;1.90;;;19.50;68.50;;;;;;5044621;28;20070;-53
2020/12/14 16:20:49;;;;;;;3.40;1.60;;;19.50;68.60;;;;;;5042880;28;20040;-53
2020/12/14 16:23:15;;;;;;;4.07;1.90;;;19.50;69.40;;;;;;5048640;28;20496;-53
2020/12/14 16:25:40;;;;;;;3.72;1.80;;;19.50;68.40;;;;;;5049460;28;20045;-50
2020/12/14 16:28:09;;;;;;;4.78;1.80;;;19.60;68.50;;;;;;5045331;28;20532;-50
2020/12/14 16:30:34;;;;;;;1.95;1.40;;;19.60;68.20;;;;;;5051474;28;20075;-50
2020/12/14 16:33:00;;;;;;;3.35;1.38;;;19.60;68.30;;;;;;5048481;28;20079;-47
2020/12/14 16:35:29;;;;;;;2.63;1.70;;;19.60;68.20;;;;;;5048063;28;20041;-53
2020/12/14 16:37:55;;;;;;;3.28;1.48;;;19.60;68.20;;;;;;5046128;28;20182;-50
2020/12/14 16:40:20;;;;;;;4.88;1.98;;;19.60;68.30;;;;;;5044814;28;20136;-53
2020/12/14 16:42:46;;;;;;;3.78;1.40;;;19.60;68.50;;;;;;5037715;28;20049;-47
2020/12/14 16:45:12;;;;;;;4.90;2.05;;;19.60;68.40;;;;;;5047999;28;20038;-50
2020/12/14 16:47:37;;;;;;;2.75;1.55;;;19.60;68.10;;;;;;5039909;28;20485;-54
2020/12/14 16:50:03;;;;;;;5.35;1.73;;;19.60;68.00;;;;;;5028134;28;20053;-51
2020/12/14 16:52:29;;;;;;;4.72;1.50;;;19.60;68.00;;;;;;5071826;28;20129;-53
2020/12/14 16:54:54;;;;;;;3.50;1.58;;;19.60;68.10;;;;;;5047284;28;20527;-50
2020/12/14 16:57:20;;;;;;;4.00;1.75;;;19.60;68.90;;;;;;5039853;28;20079;-53
2020/12/14 16:59:46;;;;;;;6.15;1.63;;;19.60;68.10;;;;;;5030298;28;20051;-55
2020/12/14 17:02:14;;;;;;;2.30;1.17;;;19.60;68.10;;;;;;5025075;28;20177;-48
2020/12/14 17:07:27;;;;;;;2.70;2.10;;;19.60;68.90;;;;;;5024498;28;20059;-53
2020/12/14 17:09:53;;;;;;;4.60;2.47;;;19.60;68.00;;;;;;5039834;28;20040;-49
2020/12/14 17:12:19;;;;;;;5.10;2.00;;;19.60;68.00;;;;;;5030771;28;20049;-52
2020/12/14 17:14:44;;;;;;;2.90;2.25;;;19.60;67.90;;;;;;5039669;28;20132;-51
2020/12/14 17:17:10;;;;;;;8.95;2.08;;;19.60;67.90;;;;;;5038474;28;20033;-50
2020/12/14 17:19:36;;;;;;;3.22;2.03;;;19.60;68.10;;;;;;5037454;28;20037;-52
2020/12/14 17:22:02;;;;;;;6.65;2.10;;;19.60;68.00;;;;;;5044364;28;20063;-46
2020/12/14 17:24:35;;;;;;;3.08;1.98;;;19.60;68.00;;;;;;5049399;28;20029;-52
2020/12/14 17:27:00;;;;;;;3.67;1.70;;;19.60;68.00;;;;;;5045110;28;20059;-52
2020/12/14 17:29:26;;;;;;;5.55;2.17;;;19.60;67.80;;;;;;5046916;28;20499;-49
2020/12/14 17:31:53;;;;;;;4.43;2.17;;;19.60;68.10;;;;;;5046262;28;20159;-49
2020/12/14 17:34:22;;;;;;;4.35;1.67;;;19.60;67.90;;;;;;5045789;28;20025;-53
2020/12/14 17:36:48;;;;;;;5.97;2.30;;;19.60;68.90;;;;;;5049191;28;20057;-50
2020/12/14 17:39:14;;;;;;;5.68;2.20;;;19.60;68.00;;;;;;5047329;28;20083;-52
2020/12/14 17:41:39;;;;;;;2.75;1.95;;;19.60;68.10;;;;;;5046637;28;20049;-49
2020/12/14 17:44:05;;;;;;;5.55;1.92;;;19.60;68.00;;;;;;5045757;28;20437;-50
2020/12/14 17:46:30;;;;;;;4.18;2.03;;;19.60;67.90;;;;;;5045005;28;20041;-52
2020/12/14 17:48:56;;;;;;;2.85;2.28;;;19.60;67.70;;;;;;5039989;28;20037;-49
2020/12/14 17:51:21;;;;;;;2.65;2.03;;;19.50;67.80;;;;;;5047118;28;20037;-48
2020/12/14 17:53:47;;;;;;;3.03;1.90;;;19.60;67.80;;;;;;5046507;28;20041;-52
2020/12/14 17:56:13;;;;;;;4.50;1.70;;;19.60;67.70;;;;;;5044874;28;20053;-50
2020/12/14 17:58:41;;;;;;;2.47;1.58;;;19.60;67.60;;;;;;5046758;28;20072;-55
2020/12/14 18:01:06;;;;;;;2.58;1.70;;;19.60;67.80;;;;;;5027931;28;20133;-52
2020/12/14 18:03:32;;;;;;;3.17;1.83;;;19.60;67.90;;;;;;5039159;28;20140;-54
2020/12/14 18:05:59;;;;;;;3.42;1.85;;;19.60;68.10;;;;;;5044578;28;20040;-56
2020/12/14 18:08:25;;;;;;;3.00;1.60;;;19.60;68.40;;;;;;5038416;28;20048;-56
2020/12/14 18:10:51;;;;;;;2.38;1.67;;;19.60;68.60;;;;;;5038698;28;20049;-52
2020/12/14 18:13:17;;;;;;;4.03;1.90;;;19.60;68.40;;;;;;5029750;28;20060;-54
2020/12/14 18:15:42;;;;;;;3.17;1.75;;;19.60;68.30;;;;;;5049059;28;20394;-49
2020/12/14 18:18:08;;;;;;;2.42;1.85;;;19.60;68.20;;;;;;5045881;28;20053;-48
2020/12/14 18:20:37;;;;;;;4.05;1.65;;;19.70;68.10;;;;;;5045180;28;20048;-51
2020/12/14 18:23:04;;;;;;;2.30;1.33;;;19.60;68.10;;;;;;5044808;28;20044;-47
2020/12/14 18:25:29;;;;;;;4.63;1.65;;;19.60;68.30;;;;;;4684433;28;10000066;-56
2020/12/14 18:27:55;;;;;;;5.30;2.40;;;19.70;68.20;;;;;;5032599;28;20052;-41
2020/12/14 18:30:20;;;;;;;5.07;2.83;;;19.70;68.20;;;;;;5045908;28;20433;-42
2020/12/14 19:42:14;;;;;;;35.38;14.98;;;19.90;68.80;;;;;;5030306;28;20029;-40
2020/12/14 21:26:39;;;;;;;9.77;6.05;;;19.80;67.80;;;;;;5047287;28;20396;-42
2020/12/14 21:29:05;;;;;;;11.73;6.53;;;19.80;67.90;;;;;;5046947;28;20037;-38
2020/12/14 21:31:30;;;;;;;9.05;5.57;;;19.80;68.00;;;;;;5048206;28;20028;-38
2020/12/14 21:33:56;;;;;;;10.80;6.00;;;19.80;68.00;;;;;;5048425;28;20138;-37
2020/12/14 21:36:26;;;;;;;9.35;5.95;;;19.80;67.90;;;;;;5049057;28;20032;-42
2020/12/14 21:38:51;;;;;;;8.25;5.65;;;19.80;68.10;;;;;;5048060;28;20051;-38
2020/12/14 21:41:43;;;;;;;8.32;5.75;;;19.80;68.10;;;;;;5048693;28;20040;-38
2020/12/14 21:44:09;;;;;;;9.57;5.85;;;19.70;68.10;;;;;;5042584;28;20040;-45
2020/12/14 21:46:35;;;;;;;11.60;5.80;;;19.70;68.10;;;;;;5047284;28;20033;-38
2020/12/14 21:49:01;;;;;;;11.73;5.82;;;19.70;68.20;;;;;;5072982;28;20036;-37
2020/12/14 21:51:26;;;;;;;8.55;5.15;;;19.60;68.30;;;;;;5048168;28;20036;-37
2020/12/14 21:53:52;;;;;;;7.63;5.43;;;19.70;68.30;;;;;;5046313;28;20471;-36
2020/12/14 21:56:18;;;;;;;7.97;5.13;;;19.60;68.40;;;;;;5046210;28;20079;-37
2020/12/14 21:58:47;;;;;;;7.88;5.05;;;19.60;69.10;;;;;;5046947;28;20499;-38
2020/12/14 22:01:13;;;;;;;7.88;5.85;;;19.60;69.20;;;;;;5047950;28;20104;-46
2020/12/14 22:03:39;;;;;;;7.45;4.65;;;19.70;68.40;;;;;;5049068;28;20115;-39
2020/12/14 22:06:05;;;;;;;6.90;4.97;;;19.60;69.10;;;;;;5048591;28;20025;-38
2020/12/14 22:08:31;;;;;;;6.65;4.60;;;19.60;68.40;;;;;;5047367;28;20120;-37
2020/12/14 22:10:57;;;;;;;8.15;5.13;;;19.60;68.30;;;;;;5048106;28;20159;-40
2020/12/14 22:13:23;;;;;;;7.45;4.60;;;19.60;68.30;;;;;;5046468;28;20036;-40
2020/12/14 22:15:48;;;;;;;5.25;4.32;;;19.60;68.40;;;;;;5049246;28;20028;-41
2020/12/14 22:18:14;;;;;;;8.52;4.57;;;19.60;68.40;;;;;;5048395;28;20530;-40
2020/12/14 22:20:42;;;;;;;7.80;4.90;;;19.60;68.40;;;;;;5046722;28;20033;-38
2020/12/14 22:23:26;;;;;;;4.43;3.97;;;19.60;68.40;;;;;;5044552;28;20040;-37
2020/12/14 22:25:52;;;;;;;6.78;4.13;;;19.60;68.30;;;;;;5045400;28;20394;-37
2020/12/14 22:28:18;;;;;;;5.47;4.22;;;19.50;69.10;;;;;;5048398;28;20210;-38
2020/12/14 22:30:47;;;;;;;5.57;4.13;;;19.50;68.30;;;;;;5049116;28;20500;-37
2020/12/14 22:33:12;;;;;;;5.00;3.95;;;19.50;68.30;;;;;;5046711;28;20025;-38
2020/12/14 22:35:38;;;;;;;6.22;4.18;;;19.50;68.30;;;;;;5045020;28;20020;-39
2020/12/14 22:38:03;;;;;;;7.75;4.03;;;19.50;68.30;;;;;;5043460;28;20081;-37
2020/12/14 22:40:29;;;;;;;5.55;3.58;;;19.50;68.30;;;;;;5044955;28;20488;-38
2020/12/14 22:42:55;;;;;;;5.28;4.00;;;19.50;68.40;;;;;;5046836;28;20041;-37
2020/12/14 22:45:20;;;;;;;4.85;3.75;;;19.50;68.30;;;;;;5046287;28;20078;-63
2020/12/14 22:47:46;;;;;;;6.00;4.03;;;19.50;68.50;;;;;;5045953;28;20087;-37